Time;durP1;ratioP1;P1;durP2;ratioP2;P2;SDS_P1;SDS_P2;PMS_P1;PMS_P2;Temp;Humidity;BMP_temperature;BMP_pressure;BME280_temperature;BME280_humidity;BME280_pressure;Samples;Min_cycle;Max_cycle;Signal;HPM_P1;HPM_P2
2021/07/07 00:02:02;;;;;;;3.33;2.23;;;;;;;;;;4982729;28;20202;-70
2021/07/07 00:04:27;;;;;;;5.50;1.90;;;;;;;;;;4987879;28;20976;-70
2021/07/07 00:06:52;;;;;;;4.18;1.95;;;;;;;;;;4981152;28;20180;-70
2021/07/07 00:09:19;;;;;;;6.85;2.60;;;;;;;;;;4976352;28;20211;-70
2021/07/07 00:11:45;;;;;;;8.50;2.25;;;;;;;;;;4983249;28;20451;-70
2021/07/07 00:14:10;;;;;;;7.72;2.38;;;;;;;;;;4988872;28;20722;-70
2021/07/07 00:16:35;;;;;;;4.70;2.15;;;;;;;;;;4991897;28;20171;-70
2021/07/07 00:19:00;;;;;;;4.57;2.20;;;;;;;;;;4982201;28;20636;-70
2021/07/07 00:21:25;;;;;;;7.28;2.40;;;;;;;;;;4986374;28;20203;-70
2021/07/07 00:23:50;;;;;;;8.85;2.30;;;;;;;;;;4988656;28;20180;-70
2021/07/07 00:26:15;;;;;;;4.78;1.90;;;;;;;;;;4985568;28;20184;-70
2021/07/07 00:28:41;;;;;;;6.15;2.22;;;;;;;;;;4984258;28;20180;-71
2021/07/07 00:31:06;;;;;;;6.50;2.22;;;;;;;;;;4983284;28;20594;-70
2021/07/07 00:33:32;;;;;;;5.65;2.60;;;;;;;;;;4986054;28;20646;-69
2021/07/07 00:35:57;;;;;;;6.40;2.42;;;;;;;;;;4980026;28;20186;-70
2021/07/07 00:38:22;;;;;;;4.57;1.95;;;;;;;;;;4982428;28;20262;-72
2021/07/07 00:40:47;;;;;;;4.07;2.55;;;;;;;;;;4981636;28;20220;-68
2021/07/07 00:43:13;;;;;;;8.77;2.55;;;;;;;;;;4988877;28;20186;-69
2021/07/07 00:45:38;;;;;;;6.85;2.40;;;;;;;;;;4985537;28;20643;-70
2021/07/07 00:48:04;;;;;;;3.42;2.10;;;;;;;;;;4984590;28;20183;-68
2021/07/07 00:50:29;;;;;;;9.48;3.15;;;;;;;;;;4984903;28;20184;-70
2021/07/07 00:52:55;;;;;;;10.25;3.33;;;;;;;;;;4981232;28;20916;-69
2021/07/07 00:55:20;;;;;;;4.50;2.80;;;;;;;;;;4960883;28;20189;-69
2021/07/07 00:57:45;;;;;;;8.93;2.38;;;;;;;;;;4978901;28;20360;-69
2021/07/07 01:00:12;;;;;;;5.30;2.35;;;;;;;;;;4981623;28;20673;-69
2021/07/07 01:02:38;;;;;;;5.85;2.60;;;;;;;;;;4988505;28;20249;-69
2021/07/07 01:05:08;;;;;;;5.28;2.50;;;;;;;;;;4978963;28;20176;-70
2021/07/07 01:07:33;;;;;;;4.13;2.40;;;;;;;;;;4975136;28;20182;-71
2021/07/07 01:09:58;;;;;;;6.63;2.88;;;;;;;;;;4986871;28;20172;-71
2021/07/07 01:12:24;;;;;;;6.68;2.72;;;;;;;;;;4982722;28;20310;-70
2021/07/07 01:14:50;;;;;;;7.85;2.90;;;;;;;;;;4983342;28;20214;-69
2021/07/07 01:17:17;;;;;;;6.47;2.60;;;;;;;;;;4995798;28;20186;-72
2021/07/07 01:19:43;;;;;;;10.40;3.45;;;;;;;;;;4985278;28;20179;-71
2021/07/07 01:22:08;;;;;;;7.88;3.17;;;;;;;;;;4993598;28;20680;-71
2021/07/07 01:24:33;;;;;;;5.45;3.25;;;;;;;;;;4977634;28;20172;-71
2021/07/07 01:26:58;;;;;;;6.55;2.65;;;;;;;;;;4985299;28;20589;-71
2021/07/07 01:29:23;;;;;;;5.78;3.00;;;;;;;;;;4983629;28;20175;-70
2021/07/07 01:31:48;;;;;;;5.80;2.92;;;;;;;;;;4988346;28;20681;-71
2021/07/07 01:34:14;;;;;;;9.65;3.47;;;;;;;;;;4984474;28;20478;-71
2021/07/07 01:36:39;;;;;;;6.68;3.15;;;;;;;;;;4986896;28;20214;-70
2021/07/07 01:39:05;;;;;;;3.55;2.85;;;;;;;;;;4971857;28;20225;-70
2021/07/07 01:41:30;;;;;;;5.25;3.38;;;;;;;;;;4974808;28;20636;-71
2021/07/07 01:43:56;;;;;;;6.57;3.72;;;;;;;;;;4973470;28;20187;-70
2021/07/07 01:46:21;;;;;;;6.65;3.78;;;;;;;;;;4970336;28;20203;-71
2021/07/07 01:48:46;;;;;;;7.53;3.60;;;;;;;;;;4969715;28;20190;-70
2021/07/07 01:51:11;;;;;;;7.93;3.38;;;;;;;;;;4968796;28;20204;-71
2021/07/07 01:53:37;;;;;;;6.47;4.18;;;;;;;;;;4968729;28;20191;-71
2021/07/07 01:56:02;;;;;;;6.82;3.25;;;;;;;;;;4970178;28;20215;-71
2021/07/07 01:58:27;;;;;;;7.85;3.40;;;;;;;;;;4969952;28;20190;-70
2021/07/07 02:00:53;;;;;;;5.70;3.22;;;;;;;;;;4972645;28;20341;-71
2021/07/07 02:03:18;;;;;;;5.85;3.15;;;;;;;;;;4970924;28;20199;-69
2021/07/07 02:05:43;;;;;;;4.60;3.40;;;;;;;;;;4974552;28;20274;-68
2021/07/07 02:08:09;;;;;;;7.18;3.00;;;;;;;;;;4969747;28;21528;-71
2021/07/07 02:10:35;;;;;;;4.60;3.05;;;;;;;;;;4969321;28;20198;-68
2021/07/07 02:13:00;;;;;;;9.93;3.55;;;;;;;;;;4971880;28;20237;-68
2021/07/07 02:15:28;;;;;;;8.27;3.60;;;;;;;;;;4967186;28;20262;-71
2021/07/07 02:17:53;;;;;;;6.95;3.60;;;;;;;;;;4969776;28;20215;-71
2021/07/07 02:20:19;;;;;;;7.15;3.47;;;;;;;;;;4968011;28;20603;-72
2021/07/07 02:22:44;;;;;;;5.68;3.33;;;;;;;;;;4969948;28;20279;-72
2021/07/07 02:25:11;;;;;;;6.63;3.47;;;;;;;;;;4970824;28;20207;-71
2021/07/07 02:27:37;;;;;;;4.47;3.38;;;;;;;;;;4972282;28;20568;-71
2021/07/07 02:30:04;;;;;;;8.15;3.63;;;;;;;;;;4970834;28;20191;-71
2021/07/07 02:32:29;;;;;;;3.47;3.13;;;;;;;;;;4968056;28;20712;-71
2021/07/07 02:34:54;;;;;;;3.60;2.80;;;;;;;;;;4969577;28;20186;-71
2021/07/07 02:37:19;;;;;;;6.05;3.63;;;;;;;;;;4972845;28;20605;-71
2021/07/07 02:39:44;;;;;;;5.03;3.38;;;;;;;;;;4972205;28;21160;-70
2021/07/07 02:42:09;;;;;;;8.38;3.47;;;;;;;;;;4976174;28;20204;-70
2021/07/07 02:44:35;;;;;;;6.25;3.22;;;;;;;;;;4970090;28;21268;-71
2021/07/07 02:47:00;;;;;;;7.88;3.60;;;;;;;;;;4969010;28;20180;-71
2021/07/07 02:49:25;;;;;;;3.85;2.78;;;;;;;;;;4969986;28;20645;-70
2021/07/07 02:51:51;;;;;;;7.20;3.08;;;;;;;;;;4967062;28;20204;-71
2021/07/07 02:54:16;;;;;;;5.50;2.90;;;;;;;;;;4968077;28;20176;-70
2021/07/07 02:56:41;;;;;;;6.22;2.72;;;;;;;;;;4968857;28;20184;-70
2021/07/07 02:59:06;;;;;;;5.28;3.28;;;;;;;;;;4973992;28;20188;-71
2021/07/07 03:01:32;;;;;;;6.28;2.95;;;;;;;;;;4968308;28;21075;-71
2021/07/07 03:03:57;;;;;;;8.98;3.45;;;;;;;;;;4972776;28;20621;-71
2021/07/07 03:06:22;;;;;;;5.93;3.10;;;;;;;;;;4968754;28;20180;-71
2021/07/07 03:08:47;;;;;;;5.65;3.35;;;;;;;;;;4976174;28;20621;-71
2021/07/07 03:11:12;;;;;;;5.28;3.30;;;;;;;;;;4969628;28;20204;-69
2021/07/07 03:13:38;;;;;;;5.72;3.00;;;;;;;;;;4974985;28;20185;-70
2021/07/07 03:16:03;;;;;;;6.88;2.90;;;;;;;;;;4967254;28;20183;-70
2021/07/07 03:18:28;;;;;;;6.10;3.08;;;;;;;;;;4972129;28;20181;-69
2021/07/07 03:20:54;;;;;;;6.45;3.30;;;;;;;;;;4972825;28;20210;-69
2021/07/07 03:23:20;;;;;;;6.88;3.10;;;;;;;;;;4970051;28;20795;-70
2021/07/07 03:25:45;;;;;;;4.22;3.13;;;;;;;;;;4971945;28;20188;-69
2021/07/07 03:28:11;;;;;;;5.05;3.63;;;;;;;;;;4986904;28;20190;-69
2021/07/07 03:30:36;;;;;;;10.30;4.05;;;;;;;;;;4966467;28;20196;-69
2021/07/07 03:33:02;;;;;;;8.68;3.50;;;;;;;;;;4973956;28;20188;-69
2021/07/07 03:35:27;;;;;;;5.10;2.90;;;;;;;;;;4971069;28;20187;-70
2021/07/07 03:37:53;;;;;;;10.48;3.83;;;;;;;;;;4978524;28;20184;-70
2021/07/07 03:40:18;;;;;;;5.60;3.22;;;;;;;;;;4973013;28;20286;-70
2021/07/07 03:42:44;;;;;;;5.43;3.60;;;;;;;;;;4979442;28;20230;-69
2021/07/07 03:45:11;;;;;;;9.57;3.97;;;;;;;;;;4975163;28;20279;-69
2021/07/07 03:47:36;;;;;;;6.13;3.67;;;;;;;;;;4976886;28;20549;-70
2021/07/07 03:50:02;;;;;;;5.32;3.35;;;;;;;;;;4971288;28;20179;-69
2021/07/07 03:52:27;;;;;;;4.75;3.25;;;;;;;;;;4971756;28;20231;-69
2021/07/07 03:54:53;;;;;;;5.03;3.45;;;;;;;;;;4971129;28;20505;-70
2021/07/07 03:57:18;;;;;;;4.25;3.70;;;;;;;;;;4978827;28;20237;-70
2021/07/07 03:59:45;;;;;;;7.60;4.57;;;;;;;;;;4994598;28;20192;-70
2021/07/07 04:02:10;;;;;;;6.28;3.92;;;;;;;;;;5001859;28;20238;-70
2021/07/07 04:04:36;;;;;;;6.13;3.88;;;;;;;;;;5001852;28;20233;-70
2021/07/07 04:07:02;;;;;;;5.32;3.63;;;;;;;;;;4992767;28;20192;-70
2021/07/07 04:09:29;;;;;;;5.43;4.13;;;;;;;;;;4976081;28;20231;-70
2021/07/07 04:11:55;;;;;;;5.07;4.05;;;;;;;;;;4975808;28;20226;-71
2021/07/07 04:14:23;;;;;;;8.77;4.15;;;;;;;;;;4976503;28;20378;-70
2021/07/07 04:16:49;;;;;;;7.47;4.07;;;;;;;;;;4987667;28;20215;-70
2021/07/07 04:19:15;;;;;;;7.05;4.90;;;;;;;;;;4971795;28;20184;-71
2021/07/07 04:21:40;;;;;;;7.32;4.30;;;;;;;;;;4975084;28;20740;-68
2021/07/07 04:24:05;;;;;;;5.78;3.80;;;;;;;;;;4978596;28;20182;-69
2021/07/07 04:26:30;;;;;;;9.07;4.33;;;;;;;;;;4971819;28;20591;-71
2021/07/07 04:28:55;;;;;;;6.40;3.58;;;;;;;;;;4971090;28;20436;-71
2021/07/07 04:31:21;;;;;;;5.67;3.60;;;;;;;;;;4971686;28;20230;-69
2021/07/07 04:33:46;;;;;;;5.07;3.33;;;;;;;;;;4972378;28;20800;-69
2021/07/07 04:36:12;;;;;;;5.18;3.40;;;;;;;;;;4975039;28;20188;-70
2021/07/07 04:38:37;;;;;;;5.65;3.20;;;;;;;;;;4978574;28;20186;-70
2021/07/07 04:41:02;;;;;;;6.63;3.75;;;;;;;;;;4971854;28;20211;-70
2021/07/07 04:43:27;;;;;;;4.75;3.50;;;;;;;;;;4977180;28;20192;-70
2021/07/07 04:45:52;;;;;;;6.90;3.40;;;;;;;;;;4971953;28;20177;-70
2021/07/07 04:48:17;;;;;;;7.57;3.10;;;;;;;;;;4976673;28;20229;-69
2021/07/07 04:50:43;;;;;;;4.07;2.50;;;;;;;;;;4972646;28;20793;-70
2021/07/07 04:53:08;;;;;;;4.40;3.35;;;;;;;;;;4988670;28;20494;-70
2021/07/07 04:55:33;;;;;;;6.10;3.20;;;;;;;;;;4971635;28;20267;-70
2021/07/07 04:57:59;;;;;;;6.07;3.70;;;;;;;;;;4979608;28;20445;-70
2021/07/07 05:00:24;;;;;;;4.57;3.05;;;;;;;;;;4972832;28;20204;-70
2021/07/07 05:02:50;;;;;;;6.90;3.40;;;;;;;;;;4971667;28;20203;-70
2021/07/07 05:05:16;;;;;;;5.43;3.17;;;;;;;;;;4972824;28;20184;-70
2021/07/07 05:07:41;;;;;;;7.82;3.90;;;;;;;;;;4979143;28;20182;-69
2021/07/07 05:10:08;;;;;;;5.72;3.55;;;;;;;;;;4976018;28;20629;-70
2021/07/07 05:12:33;;;;;;;6.50;3.72;;;;;;;;;;4975584;28;20207;-69
2021/07/07 05:14:59;;;;;;;4.40;3.28;;;;;;;;;;4973430;28;20231;-70
2021/07/07 05:17:24;;;;;;;5.15;3.53;;;;;;;;;;4972782;28;20184;-70
2021/07/07 05:19:50;;;;;;;4.20;3.80;;;;;;;;;;4968198;28;20194;-70
2021/07/07 05:22:15;;;;;;;4.82;3.70;;;;;;;;;;4968223;28;20203;-70
2021/07/07 05:24:40;;;;;;;9.07;3.78;;;;;;;;;;4978029;28;20179;-70
2021/07/07 05:27:06;;;;;;;5.07;3.63;;;;;;;;;;4970742;28;20254;-70
2021/07/07 05:29:31;;;;;;;4.10;3.10;;;;;;;;;;4973427;28;20221;-70
2021/07/07 05:31:58;;;;;;;4.03;3.47;;;;;;;;;;4976910;28;20218;-69
2021/07/07 05:34:24;;;;;;;5.90;3.08;;;;;;;;;;4976616;28;20192;-69
2021/07/07 05:36:49;;;;;;;6.70;3.50;;;;;;;;;;4979040;28;20180;-69
2021/07/07 05:39:14;;;;;;;5.13;3.25;;;;;;;;;;4977473;28;20272;-70
2021/07/07 05:41:39;;;;;;;6.75;3.47;;;;;;;;;;4974224;28;20212;-69
2021/07/07 05:44:04;;;;;;;5.65;2.72;;;;;;;;;;4971720;28;20266;-69
2021/07/07 05:46:30;;;;;;;4.47;3.03;;;;;;;;;;4973799;28;20622;-70
2021/07/07 05:48:55;;;;;;;5.70;3.20;;;;;;;;;;4971245;28;20255;-70
2021/07/07 05:51:20;;;;;;;3.95;2.85;;;;;;;;;;4969147;28;21028;-70
2021/07/07 05:53:45;;;;;;;3.10;2.80;;;;;;;;;;4969649;28;20188;-70
2021/07/07 05:56:11;;;;;;;6.17;3.83;;;;;;;;;;4970713;28;20191;-70
2021/07/07 05:58:36;;;;;;;4.68;2.83;;;;;;;;;;4972821;28;20429;-68
2021/07/07 06:01:01;;;;;;;4.88;3.10;;;;;;;;;;4970196;28;20219;-69
2021/07/07 06:03:26;;;;;;;6.30;3.70;;;;;;;;;;4976066;28;20553;-71
2021/07/07 06:05:52;;;;;;;4.85;3.60;;;;;;;;;;4971965;28;20203;-68
2021/07/07 06:08:17;;;;;;;6.30;3.00;;;;;;;;;;4971780;28;20842;-69
2021/07/07 06:10:43;;;;;;;5.73;3.03;;;;;;;;;;4968608;28;20437;-69
2021/07/07 06:13:08;;;;;;;6.30;3.47;;;;;;;;;;4969836;28;20436;-69
2021/07/07 06:15:36;;;;;;;10.38;4.20;;;;;;;;;;4972077;28;20207;-69
2021/07/07 06:18:02;;;;;;;5.65;3.58;;;;;;;;;;4977755;28;20183;-70
2021/07/07 06:20:27;;;;;;;4.03;3.30;;;;;;;;;;4971455;28;20210;-69
2021/07/07 06:22:52;;;;;;;6.63;4.57;;;;;;;;;;4975168;28;20969;-69
2021/07/07 06:25:17;;;;;;;4.13;3.50;;;;;;;;;;4967606;28;20441;-68
2021/07/07 06:27:43;;;;;;;5.22;4.20;;;;;;;;;;4969346;28;20198;-68
2021/07/07 06:30:10;;;;;;;4.60;4.03;;;;;;;;;;4968337;28;20188;-69
2021/07/07 06:32:35;;;;;;;5.75;4.25;;;;;;;;;;4974339;28;20202;-68
2021/07/07 06:35:01;;;;;;;7.07;4.20;;;;;;;;;;4974631;28;20193;-69
2021/07/07 06:37:27;;;;;;;6.65;3.95;;;;;;;;;;4974682;28;20521;-68
2021/07/07 06:39:52;;;;;;;7.40;4.43;;;;;;;;;;4968905;28;20864;-69
2021/07/07 06:42:17;;;;;;;6.55;4.25;;;;;;;;;;4969661;28;20254;-69
2021/07/07 06:44:42;;;;;;;6.18;4.18;;;;;;;;;;4969856;28;20751;-69
2021/07/07 06:47:08;;;;;;;4.60;3.90;;;;;;;;;;4971820;28;20238;-69
2021/07/07 06:49:33;;;;;;;7.70;4.28;;;;;;;;;;4970647;28;20217;-69
2021/07/07 06:51:58;;;;;;;5.78;3.45;;;;;;;;;;4968542;28;20227;-69
2021/07/07 06:54:23;;;;;;;4.63;3.88;;;;;;;;;;4972119;28;20552;-68
2021/07/07 06:56:48;;;;;;;7.40;3.72;;;;;;;;;;4969942;28;20191;-68
2021/07/07 06:59:14;;;;;;;5.95;4.32;;;;;;;;;;4967285;28;20186;-69
2021/07/07 07:01:39;;;;;;;6.00;3.63;;;;;;;;;;4968248;28;20238;-69
2021/07/07 07:04:04;;;;;;;5.03;4.10;;;;;;;;;;4972218;28;20448;-69
2021/07/07 07:06:29;;;;;;;10.17;4.63;;;;;;;;;;4970111;28;20444;-69
2021/07/07 07:08:55;;;;;;;6.70;3.60;;;;;;;;;;4976970;28;20437;-69
2021/07/07 07:11:20;;;;;;;6.40;4.10;;;;;;;;;;4983213;23;20228;-73
2021/07/07 07:13:45;;;;;;;5.15;3.30;;;;;;;;;;4957995;28;20231;-73
2021/07/07 07:16:11;;;;;;;6.53;4.00;;;;;;;;;;4951435;28;20780;-73
2021/07/07 07:18:36;;;;;;;5.80;3.33;;;;;;;;;;4952975;28;21877;-73
2021/07/07 07:21:01;;;;;;;8.30;3.57;;;;;;;;;;4952539;28;20208;-73
2021/07/07 07:23:26;;;;;;;4.60;3.03;;;;;;;;;;4945330;28;20435;-74
2021/07/07 07:25:52;;;;;;;5.77;3.27;;;;;;;;;;4941170;28;20294;-73
2021/07/07 07:28:17;;;;;;;5.85;2.83;;;;;;;;;;4940601;28;20446;-73
2021/07/07 07:30:42;;;;;;;7.78;3.10;;;;;;;;;;4938741;28;20259;-73
2021/07/07 07:33:07;;;;;;;6.50;3.65;;;;;;;;;;4942104;28;20259;-73
2021/07/07 07:35:33;;;;;;;7.70;3.70;;;;;;;;;;4939944;28;20205;-73
2021/07/07 07:38:06;;;;;;;7.47;2.75;;;;;;;;;;4946751;28;20430;-73
2021/07/07 07:40:38;;;;;;;6.75;3.03;;;;;;;;;;4937922;28;20208;-73
2021/07/07 07:43:04;;;;;;;4.40;2.35;;;;;;;;;;4941377;28;20284;-73
2021/07/07 07:45:30;;;;;;;6.30;2.85;;;;;;;;;;4944239;28;20574;-73
2021/07/07 07:47:55;;;;;;;5.82;3.30;;;;;;;;;;4941940;28;20181;-73
2021/07/07 07:50:20;;;;;;;5.82;2.65;;;;;;;;;;4942360;28;20189;-73
2021/07/07 07:52:45;;;;;;;11.55;4.10;;;;;;;;;;4939761;28;20297;-73
2021/07/07 07:55:11;;;;;;;3.35;2.20;;;;;;;;;;4944648;28;20192;-72
2021/07/07 07:57:40;;;;;;;4.43;2.45;;;;;;;;;;4942612;28;20200;-73
2021/07/07 08:00:10;;;;;;;3.63;2.10;;;;;;;;;;4939886;28;20213;-73
2021/07/07 08:02:35;;;;;;;6.82;2.97;;;;;;;;;;4945463;28;20220;-73
2021/07/07 08:05:00;;;;;;;8.67;2.57;;;;;;;;;;4945705;28;20189;-74
2021/07/07 08:07:28;;;;;;;4.70;2.13;;;;;;;;;;4945332;28;20427;-73
2021/07/07 08:09:53;;;;;;;7.40;2.78;;;;;;;;;;4947107;28;20251;-73
2021/07/07 08:12:18;;;;;;;5.07;2.72;;;;;;;;;;4945877;28;20216;-73
2021/07/07 08:14:43;;;;;;;5.10;2.17;;;;;;;;;;4945135;28;20477;-73
2021/07/07 08:17:09;;;;;;;4.82;2.00;;;;;;;;;;4944793;28;20471;-73
2021/07/07 08:19:34;;;;;;;5.30;2.10;;;;;;;;;;4946408;28;20212;-73
2021/07/07 08:21:59;;;;;;;4.87;2.30;;;;;;;;;;4952033;28;21022;-72
2021/07/07 08:24:24;;;;;;;5.50;2.13;;;;;;;;;;4948315;28;20526;-73
2021/07/07 08:26:49;;;;;;;3.75;2.20;;;;;;;;;;4945894;28;20501;-74
2021/07/07 08:29:15;;;;;;;5.90;2.22;;;;;;;;;;4945304;28;20649;-73
2021/07/07 08:31:40;;;;;;;4.68;1.80;;;;;;;;;;4944437;28;20578;-73
2021/07/07 08:34:05;;;;;;;5.32;2.13;;;;;;;;;;4943905;28;20188;-73
2021/07/07 08:36:30;;;;;;;4.95;2.28;;;;;;;;;;4952235;28;20185;-73
2021/07/07 08:38:56;;;;;;;4.82;1.70;;;;;;;;;;4944395;28;20189;-73
2021/07/07 08:41:22;;;;;;;4.65;2.10;;;;;;;;;;4942537;28;20208;-73
2021/07/07 08:43:47;;;;;;;6.22;2.20;;;;;;;;;;4944638;28;20193;-73
2021/07/07 08:46:12;;;;;;;5.05;2.80;;;;;;;;;;4942148;28;20689;-73
2021/07/07 08:48:37;;;;;;;5.93;1.90;;;;;;;;;;4943339;28;20181;-73
2021/07/07 08:51:03;;;;;;;3.70;2.60;;;;;;;;;;4940768;28;20272;-73
2021/07/07 08:53:29;;;;;;;6.28;2.83;;;;;;;;;;4944691;28;20916;-73
2021/07/07 08:55:55;;;;;;;5.05;2.20;;;;;;;;;;4944977;28;20181;-72
2021/07/07 08:58:20;;;;;;;6.03;2.58;;;;;;;;;;4948354;28;20199;-73
2021/07/07 09:00:45;;;;;;;5.90;2.00;;;;;;;;;;4942724;28;20576;-73
2021/07/07 09:03:12;;;;;;;4.03;2.10;;;;;;;;;;4944020;28;20200;-71
2021/07/07 09:05:53;;;;;;;6.22;2.20;;;;;;;;;;4949963;28;20261;-72
2021/07/07 09:08:22;;;;;;;4.38;2.30;;;;;;;;;;4944150;28;20469;-72
2021/07/07 09:10:47;;;;;;;5.10;2.75;;;;;;;;;;4945743;28;20560;-72
2021/07/07 09:13:13;;;;;;;3.10;1.93;;;;;;;;;;4945647;28;21737;-72
2021/07/07 09:15:39;;;;;;;4.32;2.08;;;;;;;;;;4943666;28;20453;-72
2021/07/07 09:18:04;;;;;;;4.10;2.30;;;;;;;;;;4944664;28;20821;-72
2021/07/07 09:20:40;;;;;;;4.50;2.13;;;;;;;;;;4944220;28;20208;-72
2021/07/07 09:23:32;;;;;;;7.13;2.50;;;;;;;;;;4944562;28;20275;-72
2021/07/07 09:25:57;;;;;;;3.60;2.20;;;;;;;;;;4939212;28;20193;-72
2021/07/07 09:28:32;;;;;;;4.95;1.98;;;;;;;;;;4940800;28;20547;-72
2021/07/07 09:31:02;;;;;;;4.70;2.35;;;;;;;;;;4937187;28;20196;-72
2021/07/07 09:33:34;;;;;;;6.68;2.00;;;;;;;;;;4942096;28;20530;-72
2021/07/07 09:36:18;;;;;;;5.90;2.35;;;;;;;;;;4955914;28;20623;-72
2021/07/07 09:38:43;;;;;;;3.25;2.10;;;;;;;;;;4943704;28;20200;-72
2021/07/07 09:41:12;;;;;;;4.13;2.10;;;;;;;;;;4941078;28;20222;-72
2021/07/07 09:43:50;;;;;;;6.13;2.75;;;;;;;;;;4936695;28;20439;-72
2021/07/07 09:46:16;;;;;;;5.28;2.40;;;;;;;;;;4941323;28;20561;-72
2021/07/07 09:48:41;;;;;;;6.28;2.50;;;;;;;;;;4941323;28;20185;-73
2021/07/07 09:51:06;;;;;;;6.22;1.98;;;;;;;;;;4944764;28;20185;-72
2021/07/07 09:53:32;;;;;;;4.03;1.88;;;;;;;;;;4958490;28;20188;-72
2021/07/07 09:55:57;;;;;;;6.13;2.50;;;;;;;;;;4940420;28;20191;-73
2021/07/07 09:58:22;;;;;;;3.87;2.20;;;;;;;;;;4945847;28;20538;-73
2021/07/07 10:00:48;;;;;;;6.53;3.25;;;;;;;;;;4935210;28;20462;-72
2021/07/07 10:03:13;;;;;;;6.63;2.27;;;;;;;;;;4943372;28;20205;-73
2021/07/07 10:05:39;;;;;;;6.82;2.90;;;;;;;;;;4940183;28;21059;-72
2021/07/07 10:08:06;;;;;;;4.63;2.20;;;;;;;;;;4945832;28;20177;-74
2021/07/07 10:10:31;;;;;;;6.15;3.05;;;;;;;;;;4936683;28;20189;-73
2021/07/07 10:12:56;;;;;;;4.90;2.13;;;;;;;;;;4942002;28;20209;-74
2021/07/07 10:15:22;;;;;;;4.33;2.30;;;;;;;;;;4943110;28;20664;-73
2021/07/07 10:17:47;;;;;;;5.45;2.17;;;;;;;;;;4940995;28;20430;-73
2021/07/07 10:20:13;;;;;;;5.73;2.63;;;;;;;;;;4940579;28;20204;-71
2021/07/07 10:22:39;;;;;;;4.88;2.28;;;;;;;;;;4942786;28;20446;-73
2021/07/07 10:25:09;;;;;;;5.03;2.20;;;;;;;;;;4942479;28;20185;-72
2021/07/07 10:27:36;;;;;;;5.60;2.65;;;;;;;;;;4955802;28;20185;-72
2021/07/07 10:30:01;;;;;;;4.65;2.33;;;;;;;;;;4938532;28;20236;-72
2021/07/07 10:32:29;;;;;;;8.93;2.38;;;;;;;;;;4940822;28;20212;-72
2021/07/07 10:34:54;;;;;;;6.03;2.25;;;;;;;;;;4938716;28;20261;-71
2021/07/07 10:37:23;;;;;;;10.47;2.90;;;;;;;;;;4942403;28;20632;-72
2021/07/07 10:39:49;;;;;;;3.33;2.30;;;;;;;;;;4938170;28;20545;-73
2021/07/07 10:42:15;;;;;;;6.18;2.28;;;;;;;;;;4942864;28;20205;-71
2021/07/07 10:44:40;;;;;;;8.23;2.50;;;;;;;;;;4943744;28;20267;-73
2021/07/07 10:47:11;;;;;;;4.82;3.17;;;;;;;;;;4948817;28;20663;-72
2021/07/07 10:49:37;;;;;;;6.50;2.42;;;;;;;;;;4941105;28;20172;-71
2021/07/07 10:52:03;;;;;;;7.10;2.58;;;;;;;;;;4941377;28;20303;-71
2021/07/07 10:54:32;;;;;;;4.30;2.35;;;;;;;;;;4943207;28;20235;-72
2021/07/07 10:57:04;;;;;;;7.88;2.80;;;;;;;;;;4942549;28;20935;-71
2021/07/07 10:59:36;;;;;;;7.82;2.75;;;;;;;;;;4941375;28;20643;-72
2021/07/07 11:02:18;;;;;;;9.32;2.78;;;;;;;;;;4941505;28;20220;-73
2021/07/07 11:04:44;;;;;;;4.10;2.47;;;;;;;;;;4945686;28;20173;-72
2021/07/07 11:07:26;;;;;;;9.10;2.92;;;;;;;;;;4949398;28;20242;-71
2021/07/07 11:09:54;;;;;;;3.03;1.88;;;;;;;;;;4948242;28;20642;-71
2021/07/07 11:12:28;;;;;;;3.58;2.53;;;;;;;;;;4941388;28;20224;-71
2021/07/07 11:15:14;;;;;;;4.25;3.10;;;;;;;;;;4940838;28;20189;-71
2021/07/07 11:17:40;;;;;;;4.57;2.42;;;;;;;;;;4959372;28;20184;-73
2021/07/07 11:20:09;;;;;;;4.13;2.83;;;;;;;;;;4940006;28;20557;-74
2021/07/07 11:22:35;;;;;;;4.57;2.60;;;;;;;;;;4944255;28;20674;-73
2021/07/07 11:25:03;;;;;;;4.72;2.80;;;;;;;;;;4946361;28;20177;-73
2021/07/07 11:27:29;;;;;;;4.95;2.53;;;;;;;;;;4940584;28;20232;-74
2021/07/07 11:29:54;;;;;;;3.78;2.53;;;;;;;;;;4940353;28;20189;-73
2021/07/07 11:32:22;;;;;;;3.75;2.17;;;;;;;;;;4943047;28;20981;-74
2021/07/07 11:34:49;;;;;;;3.97;2.25;;;;;;;;;;4942943;28;20212;-71
2021/07/07 11:37:14;;;;;;;4.70;2.05;;;;;;;;;;4944850;28;20203;-72
2021/07/07 11:39:39;;;;;;;4.10;2.20;;;;;;;;;;4939836;28;20642;-73
2021/07/07 11:42:05;;;;;;;5.03;2.60;;;;;;;;;;4943005;28;20227;-72
2021/07/07 11:44:40;;;;;;;5.55;2.80;;;;;;;;;;4952987;28;20437;-71
2021/07/07 11:47:06;;;;;;;9.02;3.33;;;;;;;;;;4940654;28;20185;-71
2021/07/07 11:49:31;;;;;;;5.20;2.60;;;;;;;;;;4956617;28;20192;-71
2021/07/07 11:52:05;;;;;;;8.93;2.53;;;;;;;;;;4938278;28;20451;-73
2021/07/07 11:54:44;;;;;;;3.60;2.55;;;;;;;;;;4939464;28;21211;-71
2021/07/07 11:57:09;;;;;;;6.18;2.50;;;;;;;;;;4943071;28;20191;-71
2021/07/07 11:59:34;;;;;;;4.20;2.78;;;;;;;;;;4944322;28;20180;-72
2021/07/07 12:01:59;;;;;;;4.90;2.78;;;;;;;;;;4941363;28;20209;-74
2021/07/07 12:04:25;;;;;;;4.10;2.33;;;;;;;;;;4944121;28;20183;-73
2021/07/07 12:06:56;;;;;;;7.25;2.25;;;;;;;;;;4939767;28;20213;-74
2021/07/07 12:09:22;;;;;;;3.13;2.10;;;;;;;;;;4941744;28;20173;-73
2021/07/07 12:11:51;;;;;;;2.95;2.13;;;;;;;;;;4941201;28;20263;-73
2021/07/07 12:14:16;;;;;;;2.90;1.90;;;;;;;;;;4942445;28;20195;-73
2021/07/07 12:16:43;;;;;;;3.77;2.20;;;;;;;;;;4943146;28;20622;-72
2021/07/07 12:19:13;;;;;;;5.30;2.30;;;;;;;;;;4939632;28;20436;-71
2021/07/07 12:21:44;;;;;;;4.18;2.65;;;;;;;;;;4936899;28;21893;-73
2021/07/07 12:24:13;;;;;;;5.90;1.98;;;;;;;;;;4940184;28;20562;-74
2021/07/07 12:26:39;;;;;;;4.18;2.22;;;;;;;;;;4940949;28;20666;-73
2021/07/07 12:29:05;;;;;;;6.75;2.35;;;;;;;;;;4939050;28;20185;-72
2021/07/07 12:31:31;;;;;;;4.10;2.30;;;;;;;;;;4942636;28;20255;-72
2021/07/07 12:33:57;;;;;;;5.20;2.30;;;;;;;;;;4940059;28;20181;-73
2021/07/07 12:36:29;;;;;;;5.68;2.25;;;;;;;;;;4938215;28;20188;-73
2021/07/07 12:38:56;;;;;;;3.97;2.25;;;;;;;;;;4943925;28;20263;-74
2021/07/07 12:41:30;;;;;;;6.05;2.15;;;;;;;;;;4941406;28;20220;-73
2021/07/07 12:43:57;;;;;;;2.97;2.05;;;;;;;;;;4941442;28;20208;-72
2021/07/07 12:46:22;;;;;;;4.03;2.13;;;;;;;;;;4939511;28;20212;-71
2021/07/07 12:48:49;;;;;;;5.00;2.53;;;;;;;;;;4943498;28;20905;-72
2021/07/07 12:51:24;;;;;;;6.03;2.35;;;;;;;;;;4941833;28;20205;-72
2021/07/07 12:53:50;;;;;;;2.88;2.50;;;;;;;;;;4938847;28;20234;-72
2021/07/07 12:56:15;;;;;;;6.47;3.55;;;;;;;;;;4938991;28;20197;-71
2021/07/07 12:58:40;;;;;;;4.82;2.92;;;;;;;;;;4939692;28;20251;-71
2021/07/07 13:01:19;;;;;;;5.68;2.50;;;;;;;;;;4940542;28;20220;-71
2021/07/07 13:03:44;;;;;;;5.43;2.50;;;;;;;;;;4941538;28;20205;-72
2021/07/07 13:06:18;;;;;;;4.10;2.40;;;;;;;;;;4942896;28;20275;-71
2021/07/07 13:08:43;;;;;;;4.28;2.63;;;;;;;;;;4937280;28;20931;-72
2021/07/07 13:13:40;;;;;;;4.53;2.03;;;;;;;;;;4947651;28;20504;-69
2021/07/07 13:16:20;;;;;;;5.90;2.65;;;;;;;;;;4944993;28;20370;-70
2021/07/07 13:18:55;;;;;;;3.65;2.28;;;;;;;;;;4944305;28;21637;-69
2021/07/07 13:21:29;;;;;;;3.75;2.20;;;;;;;;;;4945117;28;20208;-69
2021/07/07 13:23:55;;;;;;;3.15;2.20;;;;;;;;;;4943142;28;20180;-70
2021/07/07 13:26:39;;;;;;;3.30;1.88;;;;;;;;;;4943835;28;20568;-69
2021/07/07 13:29:33;;;;;;;3.97;2.65;;;;;;;;;;4946734;28;20263;-71
2021/07/07 13:32:01;;;;;;;3.00;2.40;;;;;;;;;;4944726;28;20220;-71
2021/07/07 13:34:27;;;;;;;3.65;2.15;;;;;;;;;;4943936;28;20336;-69
2021/07/07 13:36:52;;;;;;;6.43;2.22;;;;;;;;;;4944104;28;20180;-70
2021/07/07 13:39:17;;;;;;;2.55;1.85;;;;;;;;;;4944402;28;20651;-69
2021/07/07 13:41:42;;;;;;;3.53;2.20;;;;;;;;;;4943711;28;20916;-70
2021/07/07 13:44:08;;;;;;;5.20;2.30;;;;;;;;;;4945235;28;21739;-69
2021/07/07 13:46:33;;;;;;;2.95;2.25;;;;;;;;;;4943724;28;20298;-69
2021/07/07 13:48:59;;;;;;;2.55;2.20;;;;;;;;;;4942543;28;20188;-70
2021/07/07 13:51:24;;;;;;;2.83;2.35;;;;;;;;;;4945809;28;20290;-70
2021/07/07 13:53:51;;;;;;;3.72;2.55;;;;;;;;;;4948646;28;20204;-69
2021/07/07 13:56:16;;;;;;;5.10;2.88;;;;;;;;;;4941469;28;20551;-70
2021/07/07 13:58:41;;;;;;;4.80;3.13;;;;;;;;;;4944306;28;20224;-69
2021/07/07 14:01:06;;;;;;;5.60;2.63;;;;;;;;;;4943621;28;20463;-69
2021/07/07 14:03:31;;;;;;;4.90;2.87;;;;;;;;;;4941370;28;20562;-70
2021/07/07 14:05:58;;;;;;;7.13;2.87;;;;;;;;;;4941929;28;20437;-69
2021/07/07 14:08:23;;;;;;;4.55;2.72;;;;;;;;;;4950194;28;20482;-69
2021/07/07 14:10:49;;;;;;;4.40;2.33;;;;;;;;;;4942003;28;20343;-69
2021/07/07 14:13:14;;;;;;;5.50;2.47;;;;;;;;;;4944296;28;20910;-69
2021/07/07 14:15:40;;;;;;;3.20;2.45;;;;;;;;;;4938272;28;20753;-69
2021/07/07 14:18:05;;;;;;;4.50;1.90;;;;;;;;;;4942563;28;20264;-70
2021/07/07 14:20:31;;;;;;;6.75;2.00;;;;;;;;;;4940727;28;20217;-69
2021/07/07 14:22:57;;;;;;;6.93;2.95;;;;;;;;;;4941284;28;20315;-69
2021/07/07 14:25:22;;;;;;;3.35;2.35;;;;;;;;;;4943651;28;20189;-70
2021/07/07 14:27:47;;;;;;;4.70;2.30;;;;;;;;;;4945208;28;20172;-69
2021/07/07 14:30:13;;;;;;;3.03;2.00;;;;;;;;;;4943690;28;20184;-69
2021/07/07 14:32:38;;;;;;;4.45;2.20;;;;;;;;;;4943130;28;20200;-70
2021/07/07 14:35:03;;;;;;;3.70;2.10;;;;;;;;;;4944265;28;20185;-68
2021/07/07 14:37:29;;;;;;;2.78;2.08;;;;;;;;;;4947512;28;20619;-69
2021/07/07 14:39:54;;;;;;;6.07;2.55;;;;;;;;;;4940961;28;20189;-70
2021/07/07 14:42:19;;;;;;;3.77;2.73;;;;;;;;;;4942737;28;20211;-69